Date,TemperatureHighF,TemperatureAvgF,TemperatureLowF,DewpointHighF,DewpointAvgF,DewpointLowF,HumidityHigh,HumidityAvg,HumidityLow,PressureMaxIn,PressureMinIn,WindSpeedMaxMPH,WindSpeedAvgMPH,GustSpeedMaxMPH,PrecipitationSumIn
2013-1-1,53,44,38,48,40,36,98,87,60,30.05,29.50,5,2,11,0.13
2013-1-2,52,45,36,52,44,36,98,95,85,30.33,30.05,4,1,11,0.01
2013-1-3,57,52,50,53,51,50,98,95,83,30.62,30.33,4,1,9,0.00
2013-1-4,52,50,48,50,47,45,98,89,77,30.65,30.59,5,2,13,0.00
2013-1-5,53,49,46,52,48,45,98,96,89,30.60,30.51,5,1,12,0.00
2013-1-6,48,46,43,48,45,43,98,98,97,30.51,30.39,3,0,7,0.00
2013-1-7,50,47,45,48,46,45,98,97,92,30.39,30.24,5,1,8,0.01
2013-1-8,58,51,48,50,48,46,98,91,72,30.27,30.17,5,1,10,0.04
2013-1-9,59,45,32,50,43,31,98,95,61,30.17,30.06,3,0,7,0.12
2013-1-10,41,37,31,40,36,30,98,97,95,30.06,29.91,2,0,4,0.00
2013-1-11,56,38,32,47,36,31,98,93,59,30.08,29.96,0,0,2,0.00
2013-1-12,42,39,36,40,35,29,98,87,59,29.96,29.83,8,2,14,0.08
2013-1-13,43,37,32,38,31,28,95,80,60,30.13,29.94,5,1,11,0.00
2013-1-14,38,35,32,38,34,29,98,95,88,30.09,29.62,4,1,11,0.17
2013-1-15,42,34,27,35,32,26,98,92,74,29.86,29.61,6,1,14,0.00
2013-1-16,43,30,25,35,28,24,98,94,65,30.02,29.82,2,0,4,0.00
2013-1-17,48,33,23,39,28,22,98,84,50,30.07,29.87,3,0,8,0.01
2013-1-18,35,32,30,30,29,27,98,90,74,29.88,29.41,6,2,11,0.00
2013-1-19,35,33,31,33,31,28,98,93,84,29.46,29.38,4,1,12,0.00
2013-1-20,34,32,30,33,31,28,98,95,86,29.45,29.27,5,1,12,0.00
2013-1-21,48,32,25,36,30,24,98,91,55,29.49,29.26,1,0,4,0.13
2013-1-22,39,32,24,38,30,23,98,95,85,29.67,29.49,6,1,14,0.06
2013-1-23,38,36,35,34,33,31,91,87,80,29.80,29.67,4,2,10,0.04
2013-1-24,37,35,33,34,31,29,98,87,75,30.13,29.80,2,0,7,0.01
2013-1-25,38,35,32,37,31,28,97,85,76,30.12,29.56,7,2,14,0.04
2013-1-26,54,43,36,45,40,36,98,90,60,29.83,29.54,8,3,21,0.12
2013-1-27,55,48,41,51,42,34,98,82,46,29.62,29.26,10,4,21,0.32
2013-1-28,53,46,38,50,42,35,98,88,75,29.82,29.52,13,4,22,0.19
2013-1-29,57,54,50,56,53,47,98,94,81,29.65,29.55,11,4,21,0.05
2013-1-30,58,52,45,55,45,36,98,79,47,30.04,29.51,11,5,24,0.22
2013-1-31,55,50,46,48,42,36,96,77,55,30.05,29.79,11,5,100,0.05
2013-2-1,50,43,36,44,41,36,98,92,76,29.84,29.45,100,2,100,0.26
2013-2-2,47,39,25,40,31,6,98,72,27,30.24,29.58,100,4,100,0.76
2013-2-3,50,42,29,48,38,25,94,88,77,30.25,29.90,6,2,13,0.00
2013-2-4,55,49,44,48,40,33,92,73,46,29.95,29.72,10,4,18,0.00
2013-2-5,49,42,36,40,33,24,96,72,39,29.72,29.32,9,4,21,0.09
2013-2-6,46,41,36,41,34,28,97,78,66,30.06,29.36,10,4,24,0.08
2013-2-7,50,38,31,37,31,26,98,77,47,30.10,29.98,5,1,11,0.04
2013-2-8,54,39,29,39,34,29,98,83,41,30.14,30.02,6,1,11,0.01
2013-2-9,41,38,34,38,36,32,98,91,81,30.15,29.85,6,1,11,0.01
2013-2-10,42,39,34,42,38,34,98,98,96,29.85,29.25,7,2,14,0.44
2013-2-11,37,35,34,36,34,33,98,98,98,29.76,29.27,4,1,8,0.28
2013-2-12,38,36,34,35,31,29,98,85,77,30.13,29.76,4,1,10,0.00
2013-2-13,40,36,34,40,30,24,98,80,58,30.20,29.97,8,2,16,0.00
2013-2-14,59,47,39,50,43,37,98,85,52,29.98,29.73,9,3,19,0.07
2013-2-15,59,43,34,44,37,32,98,80,41,30.20,29.98,4,1,8,0.00
2013-2-16,56,44,35,41,36,29,97,75,38,30.24,30.18,2,0,7,0.00
2013-2-17,57,42,32,47,36,30,98,82,37,30.20,30.09,4,1,11,0.33
2013-2-18,58,42,32,40,35,31,98,80,40,30.14,30.09,4,1,11,0.00
2013-2-19,64,41,27,41,32,26,98,77,28,30.13,30.04,4,0,10,0.00
2013-2-20,49,39,35,40,33,27,98,80,49,30.24,30.09,6,2,18,0.04
2013-2-21,38,35,32,28,23,20,72,62,51,30.25,30.15,8,3,15,0.00
2013-2-22,40,34,33,27,24,20,75,64,55,30.15,30.08,8,2,13,0.00
2013-2-23,39,35,33,29,26,22,80,69,52,30.19,30.07,4,2,11,0.00
2013-2-24,37,35,34,30,28,26,85,75,68,30.27,30.18,6,3,13,0.00
2013-2-25,41,38,35,37,35,29,92,86,78,30.37,30.24,6,2,12,0.00
2013-2-26,42,40,37,42,39,36,98,97,93,30.55,30.36,4,1,11,0.02
2013-2-27,50,40,37,39,36,33,98,86,57,30.56,30.47,6,2,11,0.00
2013-2-28,49,41,35,39,36,33,93,84,67,30.47,30.32,5,2,11,0.00
2013-3-1,47,41,37,44,36,31,98,82,64,30.40,30.34,4,2,14,0.01
2013-3-2,54,38,28,34,31,26,95,75,44,30.40,30.27,4,1,9,0.00
2013-3-3,52,38,25,40,33,25,98,85,53,30.28,30.10,4,1,12,0.00
2013-3-4,60,42,33,39,36,32,98,80,44,30.09,29.73,5,1,11,0.00
2013-3-5,70,50,30,47,39,29,98,71,35,29.73,29.57,4,1,10,0.00
2013-3-6,62,51,18,47,43,15,91,75,56,29.57,29.49,4,1,8,0.00
2013-3-7,53,48,45,51,48,44,98,97,91,29.50,29.36,3,1,7,0.22
2013-3-8,52,50,48,51,49,48,98,98,98,29.54,29.36,2,0,6,0.34
2013-3-9,48,45,39,48,44,36,98,95,88,29.65,29.52,4,1,8,0.01
2013-3-10,41,38,34,36,34,30,92,86,79,29.72,29.64,6,2,18,0.01
2013-3-11,34,32,30,30,26,21,86,77,63,29.73,29.69,9,4,20,0.00
2013-3-12,46,36,29,34,23,15,92,62,33,29.81,29.70,8,3,19,0.00
2013-3-13,52,39,31,35,30,23,95,72,35,29.94,29.78,8,2,14,0.00
2013-3-14,55,40,26,37,26,18,98,64,24,30.02,29.92,4,1,9,0.00
2013-3-15,51,44,38,45,39,26,97,83,62,29.92,29.55,10,4,23,0.08
2013-3-16,52,45,43,46,42,40,97,91,75,29.55,29.27,12,6,27,0.38
2013-3-17,49,41,32,45,40,32,98,94,82,29.32,29.14,7,1,14,0.20
2013-3-18,52,39,31,50,38,30,98,97,83,29.34,29.20,2,0,5,0.24
2013-3-19,56,42,35,42,38,33,98,88,53,29.50,29.35,3,0,7,0.01
2013-3-20,55,41,37,42,38,35,98,88,56,29.99,29.49,5,1,10,0.01
2013-3-21,48,40,33,36,34,32,98,79,58,30.02,29.91,7,2,14,0.01
2013-3-22,46,40,37,38,36,34,97,87,71,29.91,29.71,10,4,20,0.21
2013-3-23,39,35,34,37,35,34,98,98,91,29.85,29.72,6,3,17,0.44
2013-3-24,35,34,32,35,30,24,98,85,63,29.92,29.84,7,2,17,0.00
2013-3-25,35,35,34,27,26,24,73,69,62,29.95,29.90,8,3,15,0.01
2013-3-26,37,35,34,27,25,24,73,67,60,29.93,29.87,6,2,13,0.00
2013-3-27,48,37,31,28,26,23,82,63,40,29.87,29.83,6,2,12,0.00
2013-3-28,47,38,29,36,26,20,93,63,46,29.93,29.83,6,1,11,0.00
2013-3-29,49,38,28,30,26,21,81,61,37,29.91,29.77,5,2,12,0.00
2013-3-30,47,38,30,33,29,25,91,73,48,29.96,29.77,4,1,10,0.00
2013-3-31,52,36,24,36,26,21,98,69,35,29.97,29.89,5,1,11,0.00
2013-4-1,50,38,33,31,27,20,85,65,33,29.89,29.82,8,3,18,0.00
2013-4-2,54,41,31,32,23,6,90,54,16,30.05,29.87,10,3,18,0.00
2013-4-3,42,37,30,32,26,23,93,66,51,30.06,29.98,8,2,21,0.00
2013-4-4,41,37,34,35,30,25,94,77,63,29.98,29.89,6,2,17,0.04
2013-4-5,48,40,36,32,28,19,84,63,34,30.11,29.88,8,3,15,0.00
2013-4-6,61,44,31,38,28,18,97,59,20,30.28,30.11,6,1,10,0.00
2013-4-7,59,43,27,40,25,11,95,57,16,30.28,29.88,5,1,10,0.00
2013-4-8,58,45,39,38,33,26,87,64,34,29.88,29.54,7,3,16,0.00
2013-4-9,52,44,39,46,41,37,98,91,77,29.54,29.37,4,2,10,0.04
2013-4-10,58,46,38,44,41,36,98,84,53,29.71,29.41,5,2,11,0.17
2013-4-11,60,48,44,49,46,43,98,90,59,29.49,29.34,7,2,18,0.09
2013-4-12,57,50,45,51,47,44,98,92,74,29.74,29.29,8,2,13,0.35
2013-4-13,58,50,39,53,47,38,98,91,66,29.90,29.75,10,3,21,0.12
2013-4-14,72,61,53,54,50,46,98,71,40,29.96,29.88,10,5,21,0.00
2013-4-15,65,57,49,50,48,46,88,74,53,30.07,29.94,8,3,17,0.00
2013-4-16,67,56,49,51,46,41,96,71,40,30.09,29.90,9,4,22,0.00
2013-4-17,69,58,49,55,51,46,98,80,50,30.09,29.78,9,4,20,0.00
2013-4-18,63,52,47,50,41,34,92,67,42,30.09,29.80,10,4,23,0.11
2013-4-19,66,51,42,45,40,29,91,68,26,30.50,30.08,6,2,12,0.00
2013-4-20,65,48,32,46,32,21,98,61,19,30.54,30.36,5,1,10,0.00
2013-4-21,68,49,30,44,33,24,98,62,20,30.36,30.02,5,1,11,0.00
2013-4-22,63,53,45,49,44,37,97,75,39,30.03,29.95,7,2,16,0.00
2013-4-23,77,63,51,51,48,41,97,63,28,30.21,29.97,5,2,11,0.00
2013-4-24,74,60,46,55,51,45,97,74,46,30.26,30.19,6,2,13,0.02
2013-4-25,78,62,50,56,51,45,98,71,32,30.25,30.00,8,2,15,0.01
2013-4-26,64,52,41,50,39,25,98,66,26,30.03,29.89,8,2,12,0.13
2013-4-27,63,45,34,44,36,32,98,75,34,30.09,29.88,7,1,16,0.09
2013-4-28,60,47,31,47,34,28,98,66,31,30.10,29.90,6,2,14,0.01
2013-4-29,66,54,44,45,36,29,91,57,26,30.17,29.88,7,2,16,0.00
2013-4-30,69,51,37,41,36,26,93,61,21,30.30,30.16,6,2,13,0.00
2013-5-1,71,54,40,44,35,15,93,57,12,30.30,30.13,6,1,9,0.00
2013-5-2,73,53,34,37,26,3,86,46,9,30.22,30.14,6,1,11,0.00
2013-5-3,77,56,36,43,36,23,90,54,14,30.18,30.02,6,1,11,0.00
2013-5-4,67,56,47,52,42,31,85,63,28,30.13,29.98,8,3,17,0.01
2013-5-5,72,59,41,52,47,39,96,66,41,30.19,30.13,4,1,9,0.00
2013-5-6,81,64,50,52,47,42,88,59,26,30.17,30.03,4,1,8,0.00
2013-5-7,80,62,42,48,43,38,96,56,24,30.08,29.85,4,1,9,0.00
2013-5-8,68,59,52,59,51,44,98,75,52,29.85,29.69,7,2,16,0.04
2013-5-9,64,53,45,50,44,37,95,73,38,29.84,29.67,14,5,29,0.02
2013-5-10,68,56,50,50,47,41,90,73,37,29.93,29.68,8,4,19,0.00
2013-5-11,62,51,43,52,45,38,98,81,52,29.92,29.79,11,3,18,0.19
2013-5-12,64,52,41,53,44,36,98,79,36,30.01,29.90,8,3,16,0.02
2013-5-13,63,55,47,53,44,34,98,69,34,29.91,29.80,10,4,23,0.00
2013-5-14,57,50,46,50,45,40,98,83,55,29.82,29.21,8,3,21,0.28
2013-5-15,64,50,41,45,41,36,94,73,37,29.54,29.15,10,4,23,0.01
2013-5-16,70,53,36,53,38,30,98,64,25,29.56,29.46,4,1,11,0.00
2013-5-17,62,50,38,51,43,38,98,78,53,29.80,29.55,5,1,11,0.00
2013-5-18,69,55,45,47,44,41,93,69,39,29.79,29.71,4,1,12,0.00
2013-5-19,75,59,47,50,47,44,95,69,35,29.88,29.76,5,1,12,0.00
2013-5-20,65,58,51,59,55,48,96,89,79,29.89,29.82,6,2,11,0.01
2013-5-21,64,58,52,58,52,47,88,81,59,30.06,29.89,7,2,12,0.00
2013-5-22,64,54,48,50,44,35,94,71,44,30.09,30.01,5,2,12,0.00
2013-5-23,60,50,44,42,36,26,79,61,31,30.00,29.87,7,3,14,0.00
2013-5-24,54,46,43,51,42,38,95,89,79,30.01,29.62,4,2,14,0.27
2013-5-25,69,54,42,46,40,32,98,65,26,30.15,30.00,6,2,11,0.01
2013-5-26,76,59,39,45,37,28,97,53,19,30.13,29.94,6,1,10,0.00
2013-5-27,70,57,41,45,40,32,85,56,26,29.95,29.62,8,2,18,0.00
2013-5-28,60,53,50,57,50,42,98,90,65,29.62,29.47,2,0,5,0.46
2013-5-29,61,53,47,55,50,47,98,91,62,29.75,29.55,4,1,11,0.05
2013-5-30,65,56,53,56,53,51,98,91,67,29.98,29.72,5,2,13,0.26
2013-5-31,80,63,53,56,53,50,95,72,38,30.10,29.98,6,2,10,0.00
2013-6-1,73,60,52,51,46,41,83,60,32,30.29,30.10,5,2,11,0.00
2013-6-2,74,60,44,51,42,34,96,56,23,30.43,30.29,6,1,11,0.00
2013-6-3,76,59,42,54,43,38,98,62,27,30.47,30.38,4,1,10,0.00
2013-6-4,77,62,44,48,42,38,85,53,26,30.42,30.18,6,2,15,0.00
2013-6-5,79,62,49,50,46,39,91,61,26,30.22,30.06,5,2,9,0.00
2013-6-6,79,63,49,52,48,44,92,61,35,30.19,30.11,7,2,13,0.00
2013-6-7,75,61,50,57,50,45,96,69,42,30.22,30.14,4,2,13,0.07
2013-6-8,72,60,49,50,46,45,90,64,38,30.21,30.03,6,2,15,0.00
2013-6-9,64,56,52,49,46,44,83,70,55,30.06,29.95,5,2,11,0.00
2013-6-10,67,57,49,49,46,43,84,66,48,30.00,29.94,4,1,6,0.00
2013-6-11,68,59,46,62,54,43,96,86,71,29.97,29.88,5,1,11,0.00
2013-6-12,66,61,58,62,58,55,98,91,71,29.89,29.80,8,3,20,0.06
2013-6-13,69,60,53,58,52,46,98,78,54,30.04,29.77,9,4,24,0.01
2013-6-14,72,60,47,54,48,34,93,69,25,30.06,29.79,7,2,14,0.00
2013-6-15,67,59,52,56,50,43,98,75,41,29.88,29.68,10,4,20,0.12
2013-6-16,73,60,53,52,49,46,90,68,41,29.96,29.87,4,2,10,0.00
2013-6-17,75,64,55,55,51,45,91,65,38,29.96,29.89,6,2,17,0.00
2013-6-18,77,66,56,64,58,53,95,78,56,29.96,29.88,4,1,9,0.00
2013-6-19,88,72,59,66,61,57,98,72,37,29.97,29.89,4,1,8,0.00
2013-6-20,77,67,60,65,61,56,96,82,59,29.94,29.78,4,1,10,0.00
2013-6-21,78,64,58,62,59,55,95,82,52,29.86,29.76,7,2,14,0.00
2013-6-22,69,60,54,59,54,50,98,81,56,29.85,29.65,11,4,21,0.07
2013-6-23,68,60,54,55,53,50,96,77,58,30.01,29.65,8,4,17,0.00
2013-6-24,69,59,52,51,46,40,90,64,35,30.29,30.01,5,2,11,0.00
2013-6-25,79,62,48,52,45,37,96,59,23,30.41,30.28,4,1,8,0.00
2013-6-26,79,64,49,53,48,43,95,60,28,30.42,30.34,4,1,9,0.00
2013-6-27,77,63,54,56,50,43,98,65,31,30.37,30.17,4,1,11,0.04
2013-6-28,73,63,55,66,60,54,98,90,72,30.17,30.03,5,1,13,0.06
2013-6-29,80,68,58,60,49,42,90,56,28,30.24,30.06,5,2,11,0.00
2013-6-30,86,72,58,62,57,52,98,63,35,30.23,30.04,7,2,15,0.00
2013-7-1,76,65,56,55,50,45,89,62,34,30.07,29.97,5,2,12,0.00
2013-7-2,66,60,53,57,52,48,90,75,55,29.99,29.65,6,2,12,0.00
2013-7-3,76,64,58,62,58,54,98,81,52,30.00,29.60,5,2,11,0.09
2013-7-4,80,66,54,63,59,53,96,78,54,30.25,30.00,6,2,13,0.00
2013-7-5,88,69,52,59,54,46,98,64,24,30.41,30.25,4,1,8,0.00
2013-7-6,91,72,52,62,54,46,98,59,22,30.41,30.31,3,1,7,0.00
2013-7-7,93,76,59,68,57,49,98,59,24,30.48,30.40,5,1,11,0.00
2013-7-8,89,73,59,61,55,48,87,59,27,30.52,30.42,6,2,13,0.00
2013-7-9,90,72,56,56,44,21,86,47,9,30.46,30.26,5,1,11,0.00
2013-7-10,84,69,52,58,53,50,92,61,34,30.31,30.23,8,2,12,0.00
2013-7-11,82,66,54,53,48,42,85,56,25,30.32,30.22,5,2,10,0.00
2013-7-12,86,68,54,58,53,50,90,65,31,30.32,30.21,4,1,7,0.00
2013-7-13,98,77,58,65,59,53,97,61,22,30.26,30.20,5,1,11,0.00
2013-7-14,93,78,62,64,57,46,91,55,21,30.27,30.17,5,1,9,0.00
2013-7-15,95,76,60,62,49,24,89,49,9,30.25,30.17,3,1,6,0.00
2013-7-16,96,78,63,61,56,41,82,51,16,30.24,30.16,4,1,8,0.00
2013-7-17,99,79,61,60,54,45,82,48,16,30.28,30.19,4,1,8,0.00
2013-7-18,93,76,63,62,57,48,87,56,22,30.33,30.26,5,2,12,0.00
2013-7-19,89,74,58,60,54,50,78,55,27,30.32,30.20,8,2,15,0.00
2013-7-20,82,69,62,62,60,56,95,74,48,30.26,30.15,5,2,14,0.00
2013-7-21,88,72,63,63,60,55,90,69,37,30.19,30.03,6,2,11,0.00
2013-7-22,98,80,64,68,61,51,98,59,21,30.07,29.95,6,1,10,0.00
2013-7-23,92,76,65,71,65,59,96,71,36,29.96,29.89,5,1,10,0.05
2013-7-24,89,72,60,62,59,52,93,67,29,30.00,29.92,4,2,13,0.00
2013-7-25,84,71,62,67,62,55,98,75,38,29.95,29.88,7,1,14,0.14
2013-7-26,91,72,56,61,55,47,98,62,23,29.93,29.84,4,1,8,0.00
2013-7-27,91,70,56,69,57,45,98,69,21,29.88,29.59,4,0,10,0.25
2013-7-28,81,69,59,63,59,55,98,74,42,29.80,29.61,9,3,19,0.17
2013-7-29,79,68,61,63,60,54,98,77,44,29.99,29.80,9,3,21,0.04
2013-7-30,76,65,60,69,63,59,98,93,69,29.99,29.86,5,2,11,0.09
2013-7-31,81,69,62,67,63,60,98,83,59,30.01,29.96,7,2,14,0.00
2013-8-1,97,79,60,68,63,53,98,63,23,29.96,29.68,7,2,16,0.00
2013-8-2,85,71,64,67,61,55,95,73,41,29.84,29.75,5,2,12,0.04
2013-8-3,80,68,60,62,57,52,98,71,39,30.12,29.83,8,3,18,0.09
2013-8-4,82,68,57,61,56,50,98,70,35,30.13,30.04,8,2,17,0.00
2013-8-5,81,68,61,66,60,55,98,79,46,30.05,29.77,6,2,19,0.20
2013-8-6,83,66,52,65,53,43,98,68,26,30.05,29.92,4,0,9,0.01
2013-8-7,81,67,55,60,52,45,98,63,29,30.05,29.92,4,1,9,0.00
2013-8-8,87,67,50,62,52,40,98,65,20,30.14,30.05,5,1,12,0.00
2013-8-9,85,70,61,66,55,46,98,65,27,30.20,30.04,5,2,11,0.04
2013-8-10,79,66,56,54,49,41,80,56,26,30.22,30.15,4,1,10,0.00
2013-8-11,83,68,59,59,52,42,85,60,24,30.16,30.01,7,2,13,0.00
2013-8-12,78,65,56,55,48,38,89,59,25,30.12,30.02,6,2,14,0.00
2013-8-13,80,61,49,58,50,43,98,72,27,30.23,30.11,5,1,11,0.00
2013-8-14,80,67,50,62,56,50,98,72,37,30.24,30.16,6,1,14,0.06
2013-8-15,82,70,62,65,62,59,98,79,46,30.16,30.02,7,2,11,0.00
2013-8-16,80,67,61,66,63,60,98,87,59,30.03,29.94,6,2,11,0.02
2013-8-17,73,64,56,63,59,56,98,85,59,30.00,29.75,8,3,20,0.01
2013-8-18,84,68,61,64,60,51,98,77,34,29.92,29.73,6,2,14,0.01
2013-8-19,82,67,52,56,50,43,97,60,27,30.33,29.92,4,1,8,0.00
2013-8-20,86,68,51,60,50,41,96,60,21,30.38,30.29,4,1,7,0.00
2013-8-21,89,71,52,60,53,46,98,61,24,30.32,30.15,4,1,9,0.00
2013-8-22,81,68,62,71,64,58,98,90,59,30.18,30.06,3,0,6,0.45
2013-8-23,89,73,59,69,60,53,98,69,31,30.06,29.86,6,1,13,0.00
2013-8-24,70,64,58,67,63,57,98,96,87,29.88,29.82,4,1,11,0.78
2013-8-25,81,69,57,65,61,56,98,77,48,30.06,29.86,6,1,97,0.34
2013-8-26,86,70,56,64,56,46,98,69,28,30.10,30.03,4,1,11,0.00
2013-8-27,85,64,50,61,53,45,98,72,27,30.14,30.05,4,1,8,1.13
2013-8-28,86,65,48,60,51,40,98,67,22,30.23,30.13,3,0,5,1.13
2013-8-29,84,68,56,61,55,47,94,66,29,30.22,30.13,4,1,9,0.00
2013-8-30,84,69,57,62,58,53,98,71,37,30.16,30.05,5,2,13,0.00
2013-8-31,80,66,53,61,46,31,98,55,18,30.42,30.13,4,2,11,0.00
2013-9-1,78,61,46,52,46,42,91,62,31,30.47,30.35,4,1,11,0.00
2013-9-2,87,68,51,59,54,50,98,67,32,30.37,30.28,5,1,9,0.00
2013-9-3,90,69,55,68,59,54,98,75,31,30.37,30.27,2,0,5,0.00
2013-9-4,91,71,53,68,56,49,98,67,24,30.29,30.01,4,1,9,0.00
2013-9-5,94,74,55,68,57,48,98,63,27,30.01,29.75,4,1,8,0.00
2013-9-6,71,61,53,62,56,49,96,83,48,29.85,29.74,4,1,10,0.12
2013-9-7,74,59,49,59,50,45,98,76,38,30.06,29.84,6,1,15,0.02
2013-9-8,72,55,46,61,49,46,98,82,40,30.08,30.05,7,1,11,0.02
2013-9-9,61,53,46,60,52,45,98,97,92,30.07,29.97,3,0,8,0.20
2013-9-10,71,57,46,54,50,45,98,79,41,30.17,30.06,6,2,11,0.00
2013-9-11,66,58,54,55,51,48,98,78,53,30.19,30.12,6,2,11,0.05
2013-9-12,72,61,55,62,57,54,98,89,60,30.13,30.08,3,0,8,0.04
2013-9-13,72,64,61,68,63,61,98,97,82,30.09,29.87,3,1,8,0.22
2013-9-14,62,53,46,62,52,45,98,96,83,30.08,29.86,4,1,10,0.05
2013-9-15,64,54,42,60,51,42,98,90,57,30.08,29.55,8,2,17,0.09
2013-9-16,67,54,46,55,43,37,95,69,37,29.66,29.58,8,2,19,0.00
2013-9-17,60,55,47,60,50,42,98,86,63,29.66,29.35,4,0,11,0.19
2013-9-18,70,57,48,57,51,43,98,83,45,29.88,29.41,6,1,12,0.00
2013-9-19,65,57,43,62,54,42,98,88,62,29.92,29.74,8,2,14,0.00
2013-9-20,77,59,47,54,50,46,98,77,36,30.20,29.88,4,0,11,0.00
2013-9-21,67,59,49,62,56,48,98,90,74,30.32,30.19,4,1,8,0.00
2013-9-22,68,63,56,64,61,55,98,94,82,30.39,30.31,2,0,8,0.00
2013-9-23,76,62,54,63,59,53,98,90,57,30.35,30.13,0,0,3,0.00
2013-9-24,83,61,48,63,56,47,98,85,44,30.13,29.93,2,0,5,0.00
2013-9-25,81,64,55,64,58,54,98,83,46,29.93,29.83,2,0,4,0.01
2013-9-26,76,62,53,62,55,46,98,79,37,30.06,29.91,5,1,9,0.01
2013-9-27,72,58,47,59,51,47,98,81,45,30.07,29.93,5,1,11,0.00
2013-9-28,71,60,54,60,55,51,98,84,63,29.92,29.74,7,2,12,0.00
2013-9-29,71,61,58,57,54,53,92,80,56,29.75,29.70,8,2,16,0.00
2013-9-30,69,60,54,58,54,52,98,82,57,29.79,29.68,4,1,11,0.00
2013-10-1,65,59,52,58,54,51,98,85,71,29.83,29.75,4,1,10,0.00
2013-10-2,77,64,58,63,58,53,98,85,58,29.89,29.79,4,2,11,0.00
2013-10-3,69,63,57,65,61,57,98,95,80,29.88,29.70,6,1,12,0.04
2013-10-4,74,65,58,66,61,57,98,88,64,29.95,29.68,8,2,14,0.01
2013-10-5,74,61,52,63,57,52,98,88,59,30.26,29.95,2,0,4,0.00
2013-10-6,77,58,46,64,50,45,98,79,34,30.31,30.25,3,0,8,0.00
2013-10-7,76,62,49,64,56,48,98,82,51,30.31,30.25,4,1,8,0.00
2013-10-8,78,65,56,63,59,55,98,83,47,30.29,30.24,4,1,9,0.00
2013-10-9,67,57,47,60,51,39,98,81,58,30.25,29.99,8,2,16,0.00
2013-10-10,58,50,46,44,40,37,81,69,46,30.12,30.01,10,3,17,0.00
2013-10-11,62,53,47,55,50,40,98,90,62,30.13,29.95,7,2,18,0.40
2013-10-12,66,54,44,55,48,41,98,82,42,30.13,29.96,5,1,13,0.00
2013-10-13,53,50,47,53,50,46,98,98,95,30.02,29.78,6,2,13,0.19
2013-10-14,58,50,47,51,48,46,98,94,74,29.80,29.72,4,1,9,0.13
2013-10-15,64,50,43,53,48,42,98,91,63,29.97,29.76,4,1,8,0.76
2013-10-16,68,56,42,63,52,41,98,89,75,29.98,29.70,7,2,14,0.07
2013-10-17,68,59,51,58,54,50,98,87,64,30.02,29.83,8,2,17,0.00
2013-10-18,68,59,50,61,41,25,98,58,22,30.03,29.97,4,1,12,0.01
2013-10-19,70,60,55,50,40,26,60,47,21,0.00,40.00,4,2,14,0.01
2013-10-20,70,59,54,49,39,19,62,49,15,0.00,40.00,11,3,20,0.30
2013-10-21,69,62,57,51,41,29,66,48,24,0.00,40.00,8,3,23,0.05
2013-10-22,68,63,58,48,38,24,53,40,24,0.00,40.00,7,3,14,0.07
2013-10-23,68,58,46,44,31,6,59,39,12,0.00,40.00,9,3,23,0.18
2013-10-24,69,52,43,52,28,10,72,43,12,0.00,40.00,4,1,11,0.00
2013-10-25,69,62,58,55,36,25,72,40,21,29.71,29.67,6,3,15,0.07
2013-10-26,68,61,58,37,31,15,43,32,13,29.72,29.52,8,4,24,0.00
2013-10-27,62,57,54,44,30,7,61,40,12,29.50,29.31,9,4,18,0.07
2013-10-28,62,55,48,52,28,5,73,39,12,29.61,29.23,15,5,28,0.50
2013-10-29,58,47,42,26,17,-3,43,32,12,30.08,29.61,4,2,12,0.00
2013-10-30,58,48,37,41,20,4,67,35,12,30.19,30.07,7,1,14,0.00
2013-10-31,58,55,53,44,39,22,65,54,25,30.08,29.95,6,2,17,0.15
2013-11-1,61,56,53,41,35,30,63,47,32,29.95,29.54,6,1,13,0.07
2013-11-2,63,54,50,54,44,37,84,69,44,29.57,29.42,12,3,19,0.00
2013-11-3,60,50,46,49,42,39,99,76,53,29.60,29.05,11,4,21,0.33
2013-11-4,59,47,38,48,41,35,99,82,52,29.52,29.00,8,2,14,0.26
2013-11-5,59,49,38,54,44,35,99,84,66,29.54,29.24,11,3,16,0.27
2013-11-6,61,55,50,58,52,44,97,89,81,29.55,29.49,12,3,19,0.06
2013-11-7,60,51,43,56,46,41,96,84,63,29.81,29.54,8,1,14,0.00
2013-11-8,61,46,40,52,44,40,99,95,67,29.79,29.59,6,1,10,0.28
2013-11-9,50,43,37,48,42,35,99,96,89,29.75,29.64,5,1,7,0.19
2013-11-10,62,43,35,44,38,33,99,85,45,30.30,29.64,5,1,9,0.01
2013-11-11,56,50,35,56,48,34,97,93,86,30.27,30.13,9,2,15,0.11
2013-11-12,64,53,37,56,50,35,98,91,62,30.53,30.15,7,1,9,0.07
2013-11-13,62,44,33,48,39,32,99,84,51,30.56,30.22,7,1,11,0.00
2013-11-14,56,47,39,45,40,35,87,77,55,30.42,30.11,11,3,18,0.00
2013-11-15,60,41,33,43,35,30,93,80,51,30.55,30.42,6,1,11,0.00
2013-11-16,60,42,30,45,38,29,97,85,57,30.53,30.40,4,0,8,0.00
2013-11-17,50,48,46,46,45,43,93,89,82,30.39,30.02,2,0,3,0.01
2013-11-18,51,48,44,48,46,41,95,92,84,30.02,29.75,4,1,7,0.04
2013-11-19,53,38,29,38,29,24,89,71,46,30.09,29.80,5,2,12,0.01
2013-11-20,47,38,28,42,34,23,89,83,69,30.05,29.41,8,2,14,0.20
2013-11-21,51,42,36,40,36,31,91,81,57,29.94,29.41,8,3,14,0.02
2013-11-22,52,41,36,39,35,31,89,78,58,30.14,29.92,7,2,11,0.00
2013-11-23,50,42,35,40,37,31,93,83,68,30.33,30.13,4,1,8,0.00
2013-11-24,49,44,39,42,38,34,85,79,62,30.57,30.32,5,2,11,0.00
2013-11-25,50,43,40,38,36,34,85,77,64,30.70,30.56,6,2,9,0.00
2013-11-26,54,43,35,38,34,29,81,72,54,30.70,30.59,3,1,5,0.00
2013-11-27,52,47,43,47,43,37,90,86,79,30.59,30.47,2,0,3,0.00
2013-11-28,52,49,47,46,45,43,88,86,79,30.59,30.51,4,0,5,0.00
2013-11-29,52,48,43,44,40,36,88,77,65,30.53,30.17,8,3,15,0.00
2013-11-30,57,44,35,42,36,31,84,74,56,30.49,30.17,6,2,11,0.00
2013-12-1,51,42,34,43,38,30,91,85,73,30.56,30.43,2,0,4,0.00
2013-12-2,51,46,40,45,41,36,91,83,71,30.56,30.44,2,0,4,0.00
2013-12-3,45,43,42,40,36,34,88,76,71,30.44,30.33,4,0,6,0.00
2013-12-4,50,42,33,44,36,29,87,78,61,30.52,30.29,4,1,7,0.00
2013-12-5,52,43,32,44,34,28,88,73,55,30.49,30.01,14,4,27,0.04
2013-12-6,54,43,35,41,34,28,84,71,52,30.39,30.23,6,2,10,0.00
2013-12-7,50,47,44,43,41,40,86,81,75,30.37,30.28,4,2,9,0.00
2013-12-8,59,48,42,45,42,38,85,78,60,30.34,30.25,7,3,14,0.00
2013-12-9,60,48,40,47,42,37,90,81,61,30.43,30.32,4,1,9,0.00
2013-12-10,51,43,34,46,38,30,91,85,75,30.48,30.41,4,1,8,0.01
2013-12-11,41,34,29,38,30,25,90,87,84,30.45,30.31,2,0,3,0.00
2013-12-12,55,44,34,47,40,31,92,87,73,30.31,30.19,7,1,9,0.01
2013-12-13,54,51,46,48,46,41,87,82,72,30.21,30.04,8,3,14,0.08
2013-12-14,55,48,39,47,42,35,86,79,65,30.32,30.08,13,4,24,0.05
2013-12-15,55,53,47,51,48,42,88,85,82,30.17,30.02,14,5,21,0.26
2013-12-16,56,53,46,51,48,43,89,85,82,30.13,29.95,13,4,20,0.38
2013-12-17,46,43,40,43,40,37,91,88,84,30.28,29.98,4,1,8,0.17
2013-12-18,51,48,42,47,43,39,90,84,76,29.98,29.33,15,5,24,0.38
2013-12-19,58,45,38,45,37,33,87,77,46,29.88,29.34,8,2,14,0.12
2013-12-20,55,46,37,44,38,32,82,74,57,30.20,29.88,14,4,22,0.01
2013-12-21,54,52,49,48,46,41,85,82,71,30.07,29.74,15,7,27,0.43
2013-12-22,54,48,41,44,38,33,79,71,56,29.96,29.73,11,4,19,0.00
2013-12-23,53,49,42,48,43,34,85,80,74,29.95,28.90,26,8,37,1.30
2013-12-24,53,47,42,48,41,36,86,79,68,29.02,28.82,19,5,36,0.74
2013-12-25,47,41,36,40,36,32,89,83,76,29.20,28.95,6,2,11,0.09
2013-12-26,48,40,36,42,36,32,89,85,67,29.54,29.18,12,2,22,0.01
2013-12-27,53,50,45,48,41,35,86,72,61,29.30,29.02,22,6,34,0.19
2013-12-28,55,42,33,39,34,29,84,73,52,29.73,29.28,5,1,9,0.00
2013-12-29,54,40,32,40,34,28,88,78,53,30.11,29.73,9,2,15,0.00
2013-12-30,54,48,43,46,42,38,85,79,66,30.01,29.67,17,6,28,0.33
2013-12-31,52,47,42,46,42,37,85,81,76,29.88,29.54,13,4,22,0.22
2014-1-1,53,49,43,48,44,38,86,82,77,29.60,29.06,15,7,30,0.81
2014-1-2,57,49,44,46,42,39,86,78,55,29.49,29.10,11,4,18,0.26